sensor_id;sensor_type;location;lat;lon;timestamp;P1;durP1;ratioP1;P2;durP2;ratioP2
2656;SDS011;1338;48.176;11.792;2022-08-19T00:01:42;9.67;;;8.77;;
2656;SDS011;1338;48.176;11.792;2022-08-19T00:04:20;9.53;;;8.77;;
2656;SDS011;1338;48.176;11.792;2022-08-19T00:06:50;8.43;;;7.73;;
2656;SDS011;1338;48.176;11.792;2022-08-19T00:09:20;9.70;;;8.90;;
2656;SDS011;1338;48.176;11.792;2022-08-19T00:11:50;8.73;;;7.83;;
2656;SDS011;1338;48.176;11.792;2022-08-19T00:14:19;8.30;;;7.50;;
2656;SDS011;1338;48.176;11.792;2022-08-19T00:16:49;9.00;;;8.20;;
2656;SDS011;1338;48.176;11.792;2022-08-19T00:19:21;8.97;;;8.17;;
2656;SDS011;1338;48.176;11.792;2022-08-19T00:21:50;9.97;;;9.07;;
2656;SDS011;1338;48.176;11.792;2022-08-19T00:24:19;9.57;;;8.83;;
2656;SDS011;1338;48.176;11.792;2022-08-19T00:26:47;8.73;;;7.93;;
2656;SDS011;1338;48.176;11.792;2022-08-19T00:29:17;8.97;;;8.27;;
2656;SDS011;1338;48.176;11.792;2022-08-19T00:31:47;8.83;;;7.93;;
2656;SDS011;1338;48.176;11.792;2022-08-19T00:34:20;9.00;;;8.30;;
2656;SDS011;1338;48.176;11.792;2022-08-19T00:36:49;8.77;;;8.03;;
2656;SDS011;1338;48.176;11.792;2022-08-19T00:39:17;9.67;;;8.87;;
2656;SDS011;1338;48.176;11.792;2022-08-19T00:41:46;9.63;;;8.93;;
2656;SDS011;1338;48.176;11.792;2022-08-19T00:44:16;9.50;;;8.67;;
2656;SDS011;1338;48.176;11.792;2022-08-19T00:46:54;10.13;;;9.23;;
2656;SDS011;1338;48.176;11.792;2022-08-19T00:49:27;8.87;;;8.17;;
2656;SDS011;1338;48.176;11.792;2022-08-19T00:51:59;9.90;;;9.10;;
2656;SDS011;1338;48.176;11.792;2022-08-19T00:54:29;10.80;;;9.90;;
2656;SDS011;1338;48.176;11.792;2022-08-19T00:56:59;9.83;;;8.93;;
2656;SDS011;1338;48.176;11.792;2022-08-19T00:59:32;10.83;;;9.93;;
2656;SDS011;1338;48.176;11.792;2022-08-19T01:02:27;11.00;;;10.00;;
2656;SDS011;1338;48.176;11.792;2022-08-19T01:04:56;10.80;;;9.80;;
2656;SDS011;1338;48.176;11.792;2022-08-19T01:07:24;10.90;;;9.90;;
2656;SDS011;1338;48.176;11.792;2022-08-19T01:09:53;11.37;;;10.30;;
2656;SDS011;1338;48.176;11.792;2022-08-19T01:12:21;11.30;;;10.30;;
2656;SDS011;1338;48.176;11.792;2022-08-19T01:14:50;11.37;;;10.37;;
2656;SDS011;1338;48.176;11.792;2022-08-19T01:17:19;11.13;;;10.23;;
2656;SDS011;1338;48.176;11.792;2022-08-19T01:19:49;10.20;;;9.30;;
2656;SDS011;1338;48.176;11.792;2022-08-19T01:22:19;9.87;;;8.97;;
2656;SDS011;1338;48.176;11.792;2022-08-19T01:24:59;11.00;;;10.10;;
2656;SDS011;1338;48.176;11.792;2022-08-19T01:27:36;12.47;;;11.37;;
2656;SDS011;1338;48.176;11.792;2022-08-19T01:30:09;12.30;;;11.30;;
2656;SDS011;1338;48.176;11.792;2022-08-19T01:32:38;12.10;;;10.53;;
2656;SDS011;1338;48.176;11.792;2022-08-19T01:35:07;12.40;;;11.20;;
2656;SDS011;1338;48.176;11.792;2022-08-19T01:37:44;11.63;;;10.57;;
2656;SDS011;1338;48.176;11.792;2022-08-19T01:40:13;13.27;;;12.07;;
2656;SDS011;1338;48.176;11.792;2022-08-19T01:42:42;11.90;;;10.80;;
2656;SDS011;1338;48.176;11.792;2022-08-19T01:45:10;11.23;;;10.20;;
2656;SDS011;1338;48.176;11.792;2022-08-19T01:47:39;12.97;;;11.87;;
2656;SDS011;1338;48.176;11.792;2022-08-19T01:50:08;13.17;;;12.07;;
2656;SDS011;1338;48.176;11.792;2022-08-19T01:52:38;12.03;;;10.97;;
2656;SDS011;1338;48.176;11.792;2022-08-19T01:55:11;13.33;;;12.10;;
2656;SDS011;1338;48.176;11.792;2022-08-19T01:57:41;12.83;;;11.70;;
2656;SDS011;1338;48.176;11.792;2022-08-19T02:00:14;13.10;;;11.97;;
2656;SDS011;1338;48.176;11.792;2022-08-19T02:02:44;14.63;;;13.23;;
2656;SDS011;1338;48.176;11.792;2022-08-19T02:05:12;12.70;;;11.60;;
2656;SDS011;1338;48.176;11.792;2022-08-19T02:07:44;14.10;;;12.70;;
2656;SDS011;1338;48.176;11.792;2022-08-19T02:10:14;12.90;;;11.80;;
2656;SDS011;1338;48.176;11.792;2022-08-19T02:12:45;13.83;;;12.63;;
2656;SDS011;1338;48.176;11.792;2022-08-19T02:15:15;12.13;;;11.03;;
2656;SDS011;1338;48.176;11.792;2022-08-19T02:17:45;13.80;;;12.50;;
2656;SDS011;1338;48.176;11.792;2022-08-19T02:20:14;12.77;;;11.43;;
2656;SDS011;1338;48.176;11.792;2022-08-19T02:22:43;13.00;;;11.80;;
2656;SDS011;1338;48.176;11.792;2022-08-19T02:25:13;12.60;;;11.50;;
2656;SDS011;1338;48.176;11.792;2022-08-19T02:27:42;12.30;;;11.20;;
2656;SDS011;1338;48.176;11.792;2022-08-19T02:30:11;13.33;;;12.23;;
2656;SDS011;1338;48.176;11.792;2022-08-19T02:32:43;12.67;;;11.37;;
2656;SDS011;1338;48.176;11.792;2022-08-19T02:35:11;12.40;;;11.10;;
2656;SDS011;1338;48.176;11.792;2022-08-19T02:37:39;11.13;;;10.20;;
2656;SDS011;1338;48.176;11.792;2022-08-19T02:40:26;10.43;;;9.23;;
2656;SDS011;1338;48.176;11.792;2022-08-19T02:42:55;12.60;;;11.40;;
2656;SDS011;1338;48.176;11.792;2022-08-19T02:45:23;11.73;;;10.60;;
2656;SDS011;1338;48.176;11.792;2022-08-19T02:47:52;12.03;;;10.83;;
2656;SDS011;1338;48.176;11.792;2022-08-19T02:50:20;11.67;;;10.57;;
2656;SDS011;1338;48.176;11.792;2022-08-19T02:52:48;11.57;;;10.53;;
2656;SDS011;1338;48.176;11.792;2022-08-19T02:55:16;12.33;;;11.20;;
2656;SDS011;1338;48.176;11.792;2022-08-19T02:57:46;11.53;;;10.47;;
2656;SDS011;1338;48.176;11.792;2022-08-19T03:00:15;10.83;;;9.73;;
2656;SDS011;1338;48.176;11.792;2022-08-19T03:02:44;13.03;;;11.80;;
2656;SDS011;1338;48.176;11.792;2022-08-19T03:05:13;11.27;;;10.27;;
2656;SDS011;1338;48.176;11.792;2022-08-19T03:07:41;12.37;;;11.17;;
2656;SDS011;1338;48.176;11.792;2022-08-19T03:10:09;10.87;;;9.77;;
2656;SDS011;1338;48.176;11.792;2022-08-19T03:12:38;12.50;;;11.27;;
2656;SDS011;1338;48.176;11.792;2022-08-19T03:15:08;11.00;;;9.90;;
2656;SDS011;1338;48.176;11.792;2022-08-19T03:17:37;11.57;;;10.40;;
2656;SDS011;1338;48.176;11.792;2022-08-19T03:20:05;11.20;;;10.10;;
2656;SDS011;1338;48.176;11.792;2022-08-19T03:22:34;11.13;;;10.13;;
2656;SDS011;1338;48.176;11.792;2022-08-19T03:25:03;11.10;;;10.00;;
2656;SDS011;1338;48.176;11.792;2022-08-19T03:27:31;12.30;;;11.20;;
2656;SDS011;1338;48.176;11.792;2022-08-19T03:30:00;13.10;;;11.50;;
2656;SDS011;1338;48.176;11.792;2022-08-19T03:32:30;11.10;;;10.10;;
2656;SDS011;1338;48.176;11.792;2022-08-19T03:34:58;11.70;;;10.70;;
2656;SDS011;1338;48.176;11.792;2022-08-19T03:37:27;11.80;;;10.60;;
2656;SDS011;1338;48.176;11.792;2022-08-19T03:39:55;11.00;;;10.00;;
2656;SDS011;1338;48.176;11.792;2022-08-19T03:42:23;10.97;;;9.87;;
2656;SDS011;1338;48.176;11.792;2022-08-19T03:45:13;10.70;;;9.80;;
2656;SDS011;1338;48.176;11.792;2022-08-19T03:47:42;12.47;;;11.23;;
2656;SDS011;1338;48.176;11.792;2022-08-19T03:50:11;12.87;;;11.67;;
2656;SDS011;1338;48.176;11.792;2022-08-19T03:52:40;12.17;;;11.07;;
2656;SDS011;1338;48.176;11.792;2022-08-19T03:55:13;11.57;;;10.47;;
2656;SDS011;1338;48.176;11.792;2022-08-19T03:57:41;12.27;;;10.77;;
2656;SDS011;1338;48.176;11.792;2022-08-19T04:00:11;11.20;;;10.20;;
2656;SDS011;1338;48.176;11.792;2022-08-19T04:02:40;11.43;;;10.40;;
2656;SDS011;1338;48.176;11.792;2022-08-19T04:05:26;10.50;;;9.50;;
2656;SDS011;1338;48.176;11.792;2022-08-19T04:07:55;11.53;;;10.43;;
2656;SDS011;1338;48.176;11.792;2022-08-19T04:10:25;16.63;;;11.03;;
2656;SDS011;1338;48.176;11.792;2022-08-19T04:12:54;12.00;;;10.90;;
2656;SDS011;1338;48.176;11.792;2022-08-19T04:15:22;10.77;;;9.83;;
2656;SDS011;1338;48.176;11.792;2022-08-19T04:17:52;12.00;;;10.90;;
2656;SDS011;1338;48.176;11.792;2022-08-19T04:20:21;12.77;;;11.53;;
2656;SDS011;1338;48.176;11.792;2022-08-19T04:22:49;12.70;;;11.40;;
2656;SDS011;1338;48.176;11.792;2022-08-19T04:25:17;12.50;;;11.40;;
2656;SDS011;1338;48.176;11.792;2022-08-19T04:27:45;10.17;;;9.23;;
2656;SDS011;1338;48.176;11.792;2022-08-19T04:30:14;12.73;;;11.50;;
2656;SDS011;1338;48.176;11.792;2022-08-19T04:32:43;12.33;;;11.13;;
2656;SDS011;1338;48.176;11.792;2022-08-19T04:35:13;12.90;;;11.50;;
2656;SDS011;1338;48.176;11.792;2022-08-19T04:37:46;12.17;;;10.90;;
2656;SDS011;1338;48.176;11.792;2022-08-19T04:40:14;12.63;;;11.33;;
2656;SDS011;1338;48.176;11.792;2022-08-19T04:43:00;14.27;;;12.70;;
2656;SDS011;1338;48.176;11.792;2022-08-19T04:45:28;14.00;;;12.53;;
2656;SDS011;1338;48.176;11.792;2022-08-19T04:48:08;13.40;;;12.20;;
2656;SDS011;1338;48.176;11.792;2022-08-19T04:50:55;13.53;;;12.23;;
2656;SDS011;1338;48.176;11.792;2022-08-19T04:53:24;12.43;;;11.27;;
2656;SDS011;1338;48.176;11.792;2022-08-19T04:55:54;13.73;;;12.23;;
2656;SDS011;1338;48.176;11.792;2022-08-19T04:58:23;13.43;;;11.03;;
2656;SDS011;1338;48.176;11.792;2022-08-19T05:00:53;13.10;;;11.90;;
2656;SDS011;1338;48.176;11.792;2022-08-19T05:03:23;12.43;;;11.33;;
2656;SDS011;1338;48.176;11.792;2022-08-19T05:06:00;11.70;;;10.60;;
2656;SDS011;1338;48.176;11.792;2022-08-19T05:08:36;11.03;;;10.00;;
2656;SDS011;1338;48.176;11.792;2022-08-19T05:11:18;12.50;;;11.20;;
2656;SDS011;1338;48.176;11.792;2022-08-19T05:13:52;11.27;;;10.17;;
2656;SDS011;1338;48.176;11.792;2022-08-19T05:16:21;11.63;;;10.53;;
2656;SDS011;1338;48.176;11.792;2022-08-19T05:18:50;11.53;;;10.47;;
2656;SDS011;1338;48.176;11.792;2022-08-19T05:21:38;8.67;;;7.93;;
2656;SDS011;1338;48.176;11.792;2022-08-19T05:24:21;10.20;;;9.20;;
2656;SDS011;1338;48.176;11.792;2022-08-19T05:26:51;10.47;;;9.57;;
2656;SDS011;1338;48.176;11.792;2022-08-19T05:29:23;9.77;;;8.93;;
2656;SDS011;1338;48.176;11.792;2022-08-19T05:32:02;8.83;;;8.10;;
2656;SDS011;1338;48.176;11.792;2022-08-19T05:34:34;10.83;;;8.20;;
2656;SDS011;1338;48.176;11.792;2022-08-19T05:37:05;10.23;;;9.33;;
2656;SDS011;1338;48.176;11.792;2022-08-19T05:39:35;11.20;;;10.20;;
2656;SDS011;1338;48.176;11.792;2022-08-19T05:42:05;11.40;;;9.97;;
2656;SDS011;1338;48.176;11.792;2022-08-19T05:44:35;9.40;;;8.50;;
2656;SDS011;1338;48.176;11.792;2022-08-19T05:47:05;11.03;;;10.03;;
2656;SDS011;1338;48.176;11.792;2022-08-19T05:49:35;12.37;;;9.40;;
2656;SDS011;1338;48.176;11.792;2022-08-19T05:52:06;9.87;;;9.03;;
2656;SDS011;1338;48.176;11.792;2022-08-19T05:54:38;9.43;;;8.43;;
2656;SDS011;1338;48.176;11.792;2022-08-19T05:57:08;9.60;;;8.73;;
2656;SDS011;1338;48.176;11.792;2022-08-19T05:59:38;10.23;;;9.40;;
2656;SDS011;1338;48.176;11.792;2022-08-19T06:02:06;10.20;;;9.20;;
2656;SDS011;1338;48.176;11.792;2022-08-19T06:04:35;11.20;;;10.20;;
2656;SDS011;1338;48.176;11.792;2022-08-19T06:07:03;11.00;;;9.90;;
2656;SDS011;1338;48.176;11.792;2022-08-19T06:09:38;11.80;;;10.73;;
2656;SDS011;1338;48.176;11.792;2022-08-19T06:12:24;12.20;;;11.00;;
2656;SDS011;1338;48.176;11.792;2022-08-19T06:15:01;12.43;;;11.23;;
2656;SDS011;1338;48.176;11.792;2022-08-19T06:17:31;12.67;;;11.47;;
2656;SDS011;1338;48.176;11.792;2022-08-19T06:20:01;13.13;;;11.83;;
2656;SDS011;1338;48.176;11.792;2022-08-19T06:22:35;13.20;;;12.00;;
2656;SDS011;1338;48.176;11.792;2022-08-19T06:25:05;13.50;;;12.20;;
2656;SDS011;1338;48.176;11.792;2022-08-19T06:27:35;12.50;;;11.30;;
2656;SDS011;1338;48.176;11.792;2022-08-19T06:30:23;13.03;;;11.80;;
2656;SDS011;1338;48.176;11.792;2022-08-19T06:32:52;12.60;;;11.43;;
2656;SDS011;1338;48.176;11.792;2022-08-19T06:35:20;14.27;;;12.73;;
2656;SDS011;1338;48.176;11.792;2022-08-19T06:37:50;13.77;;;12.27;;
2656;SDS011;1338;48.176;11.792;2022-08-19T06:40:18;14.40;;;13.03;;
2656;SDS011;1338;48.176;11.792;2022-08-19T06:42:47;14.87;;;13.47;;
2656;SDS011;1338;48.176;11.792;2022-08-19T06:45:20;13.47;;;12.27;;
2656;SDS011;1338;48.176;11.792;2022-08-19T06:47:50;15.07;;;13.57;;
2656;SDS011;1338;48.176;11.792;2022-08-19T06:50:22;14.47;;;13.13;;
2656;SDS011;1338;48.176;11.792;2022-08-19T06:52:52;15.17;;;13.77;;
2656;SDS011;1338;48.176;11.792;2022-08-19T06:55:20;15.10;;;13.30;;
2656;SDS011;1338;48.176;11.792;2022-08-19T06:57:49;15.23;;;13.63;;
2656;SDS011;1338;48.176;11.792;2022-08-19T07:00:20;14.13;;;12.73;;
2656;SDS011;1338;48.176;11.792;2022-08-19T07:02:48;14.70;;;13.40;;
2656;SDS011;1338;48.176;11.792;2022-08-19T07:05:24;15.70;;;14.10;;
2656;SDS011;1338;48.176;11.792;2022-08-19T07:07:54;16.33;;;14.73;;
2656;SDS011;1338;48.176;11.792;2022-08-19T07:10:29;16.90;;;15.30;;
2656;SDS011;1338;48.176;11.792;2022-08-19T07:12:59;17.23;;;15.60;;
2656;SDS011;1338;48.176;11.792;2022-08-19T07:15:27;16.07;;;14.57;;
2656;SDS011;1338;48.176;11.792;2022-08-19T07:17:55;16.77;;;15.27;;
2656;SDS011;1338;48.176;11.792;2022-08-19T07:20:23;17.27;;;14.90;;
2656;SDS011;1338;48.176;11.792;2022-08-19T07:22:56;16.67;;;15.13;;
2656;SDS011;1338;48.176;11.792;2022-08-19T07:25:25;17.43;;;15.73;;
2656;SDS011;1338;48.176;11.792;2022-08-19T07:27:58;17.73;;;15.83;;
2656;SDS011;1338;48.176;11.792;2022-08-19T07:30:27;15.70;;;14.20;;
2656;SDS011;1338;48.176;11.792;2022-08-19T07:32:57;19.17;;;17.10;;
2656;SDS011;1338;48.176;11.792;2022-08-19T07:35:28;13.53;;;12.20;;
2656;SDS011;1338;48.176;11.792;2022-08-19T07:37:59;18.70;;;15.90;;
2656;SDS011;1338;48.176;11.792;2022-08-19T07:40:30;18.70;;;17.00;;
2656;SDS011;1338;48.176;11.792;2022-08-19T07:42:58;19.43;;;17.20;;
2656;SDS011;1338;48.176;11.792;2022-08-19T07:45:27;18.47;;;16.50;;
2656;SDS011;1338;48.176;11.792;2022-08-19T07:47:55;18.60;;;16.60;;
2656;SDS011;1338;48.176;11.792;2022-08-19T07:50:24;17.37;;;15.67;;
2656;SDS011;1338;48.176;11.792;2022-08-19T07:52:52;18.97;;;17.17;;
2656;SDS011;1338;48.176;11.792;2022-08-19T07:55:22;17.63;;;15.93;;
2656;SDS011;1338;48.176;11.792;2022-08-19T07:58:09;17.97;;;15.93;;
2656;SDS011;1338;48.176;11.792;2022-08-19T08:00:38;18.87;;;16.77;;
2656;SDS011;1338;48.176;11.792;2022-08-19T08:03:06;20.03;;;18.10;;
2656;SDS011;1338;48.176;11.792;2022-08-19T08:05:35;19.73;;;17.83;;
2656;SDS011;1338;48.176;11.792;2022-08-19T08:08:21;19.13;;;17.17;;
2656;SDS011;1338;48.176;11.792;2022-08-19T08:11:15;22.20;;;19.97;;
2656;SDS011;1338;48.176;11.792;2022-08-19T08:13:46;21.53;;;19.43;;
2656;SDS011;1338;48.176;11.792;2022-08-19T08:16:30;21.90;;;19.80;;
2656;SDS011;1338;48.176;11.792;2022-08-19T08:19:00;22.77;;;20.63;;
2656;SDS011;1338;48.176;11.792;2022-08-19T08:21:37;22.00;;;19.77;;
2656;SDS011;1338;48.176;11.792;2022-08-19T08:24:11;23.47;;;21.13;;
2656;SDS011;1338;48.176;11.792;2022-08-19T08:26:40;24.70;;;22.20;;
2656;SDS011;1338;48.176;11.792;2022-08-19T08:29:12;23.50;;;21.23;;
2656;SDS011;1338;48.176;11.792;2022-08-19T08:31:42;24.17;;;21.60;;
2656;SDS011;1338;48.176;11.792;2022-08-19T08:34:14;22.60;;;20.33;;
2656;SDS011;1338;48.176;11.792;2022-08-19T08:36:43;22.60;;;20.40;;
2656;SDS011;1338;48.176;11.792;2022-08-19T08:39:12;23.13;;;20.70;;
2656;SDS011;1338;48.176;11.792;2022-08-19T08:41:46;23.57;;;21.13;;
2656;SDS011;1338;48.176;11.792;2022-08-19T08:44:21;21.93;;;19.83;;
2656;SDS011;1338;48.176;11.792;2022-08-19T08:46:56;23.90;;;21.23;;
2656;SDS011;1338;48.176;11.792;2022-08-19T08:49:29;25.70;;;23.00;;
2656;SDS011;1338;48.176;11.792;2022-08-19T08:52:05;24.50;;;21.20;;
2656;SDS011;1338;48.176;11.792;2022-08-19T08:54:38;25.13;;;22.43;;
2656;SDS011;1338;48.176;11.792;2022-08-19T08:57:23;24.80;;;22.10;;
2656;SDS011;1338;48.176;11.792;2022-08-19T09:00:08;27.90;;;25.10;;
2656;SDS011;1338;48.176;11.792;2022-08-19T09:02:42;27.20;;;24.20;;
2656;SDS011;1338;48.176;11.792;2022-08-19T09:05:16;28.77;;;25.90;;
2656;SDS011;1338;48.176;11.792;2022-08-19T09:07:53;28.47;;;25.57;;
2656;SDS011;1338;48.176;11.792;2022-08-19T09:10:29;27.07;;;23.70;;
2656;SDS011;1338;48.176;11.792;2022-08-19T09:13:14;27.70;;;24.73;;
2656;SDS011;1338;48.176;11.792;2022-08-19T09:15:50;27.27;;;24.37;;
2656;SDS011;1338;48.176;11.792;2022-08-19T09:18:23;28.17;;;25.27;;
2656;SDS011;1338;48.176;11.792;2022-08-19T09:20:55;27.90;;;25.00;;
2656;SDS011;1338;48.176;11.792;2022-08-19T09:23:23;27.20;;;24.10;;
2656;SDS011;1338;48.176;11.792;2022-08-19T09:25:52;29.03;;;25.90;;
2656;SDS011;1338;48.176;11.792;2022-08-19T09:28:22;32.13;;;26.67;;
2656;SDS011;1338;48.176;11.792;2022-08-19T09:30:52;28.63;;;25.73;;
2656;SDS011;1338;48.176;11.792;2022-08-19T09:33:20;27.10;;;24.20;;
2656;SDS011;1338;48.176;11.792;2022-08-19T09:35:49;26.23;;;23.43;;
2656;SDS011;1338;48.176;11.792;2022-08-19T09:38:19;30.37;;;25.50;;
2656;SDS011;1338;48.176;11.792;2022-08-19T09:40:47;26.03;;;23.23;;
2656;SDS011;1338;48.176;11.792;2022-08-19T09:43:16;29.27;;;26.30;;
2656;SDS011;1338;48.176;11.792;2022-08-19T09:46:00;25.80;;;23.20;;
2656;SDS011;1338;48.176;11.792;2022-08-19T09:48:29;25.57;;;22.97;;
2656;SDS011;1338;48.176;11.792;2022-08-19T09:51:02;27.37;;;24.73;;
2656;SDS011;1338;48.176;11.792;2022-08-19T09:53:31;25.50;;;22.90;;
2656;SDS011;1338;48.176;11.792;2022-08-19T09:56:03;24.63;;;22.23;;
2656;SDS011;1338;48.176;11.792;2022-08-19T09:58:33;25.57;;;23.07;;
2656;SDS011;1338;48.176;11.792;2022-08-19T10:01:04;24.43;;;21.93;;
2656;SDS011;1338;48.176;11.792;2022-08-19T10:03:35;25.77;;;23.17;;
2656;SDS011;1338;48.176;11.792;2022-08-19T10:06:04;28.10;;;25.30;;
2656;SDS011;1338;48.176;11.792;2022-08-19T10:08:42;24.30;;;21.97;;
2656;SDS011;1338;48.176;11.792;2022-08-19T10:11:15;25.30;;;22.70;;
2656;SDS011;1338;48.176;11.792;2022-08-19T10:14:01;24.63;;;22.27;;
2656;SDS011;1338;48.176;11.792;2022-08-19T10:16:33;23.63;;;21.43;;
2656;SDS011;1338;48.176;11.792;2022-08-19T10:19:05;24.60;;;22.00;;
2656;SDS011;1338;48.176;11.792;2022-08-19T10:21:33;24.40;;;22.00;;
2656;SDS011;1338;48.176;11.792;2022-08-19T10:24:02;22.93;;;20.63;;
2656;SDS011;1338;48.176;11.792;2022-08-19T10:26:36;22.70;;;20.50;;
2656;SDS011;1338;48.176;11.792;2022-08-19T10:29:07;23.43;;;21.03;;
2656;SDS011;1338;48.176;11.792;2022-08-19T10:31:39;21.77;;;19.67;;
2656;SDS011;1338;48.176;11.792;2022-08-19T10:34:28;21.50;;;19.30;;
2656;SDS011;1338;48.176;11.792;2022-08-19T10:36:57;20.03;;;18.03;;
2656;SDS011;1338;48.176;11.792;2022-08-19T10:39:27;18.57;;;16.77;;
2656;SDS011;1338;48.176;11.792;2022-08-19T10:42:06;20.00;;;18.20;;
2656;SDS011;1338;48.176;11.792;2022-08-19T10:44:37;18.70;;;16.83;;
2656;SDS011;1338;48.176;11.792;2022-08-19T10:47:07;17.33;;;15.70;;
2656;SDS011;1338;48.176;11.792;2022-08-19T10:49:51;15.30;;;13.87;;
2656;SDS011;1338;48.176;11.792;2022-08-19T10:52:38;14.57;;;13.20;;
2656;SDS011;1338;48.176;11.792;2022-08-19T10:55:15;13.37;;;12.17;;
2656;SDS011;1338;48.176;11.792;2022-08-19T10:58:02;14.93;;;13.63;;
2656;SDS011;1338;48.176;11.792;2022-08-19T11:00:31;12.03;;;11.03;;
2656;SDS011;1338;48.176;11.792;2022-08-19T11:03:01;11.97;;;10.97;;
2656;SDS011;1338;48.176;11.792;2022-08-19T11:05:29;12.30;;;11.10;;
2656;SDS011;1338;48.176;11.792;2022-08-19T11:08:05;14.97;;;13.67;;
2656;SDS011;1338;48.176;11.792;2022-08-19T11:10:48;16.03;;;14.53;;
2656;SDS011;1338;48.176;11.792;2022-08-19T11:13:20;14.70;;;13.30;;
2656;SDS011;1338;48.176;11.792;2022-08-19T11:15:55;15.20;;;13.80;;
2656;SDS011;1338;48.176;11.792;2022-08-19T11:18:30;16.87;;;15.17;;
2656;SDS011;1338;48.176;11.792;2022-08-19T11:21:05;13.53;;;12.33;;
2656;SDS011;1338;48.176;11.792;2022-08-19T11:23:37;15.87;;;14.37;;
2656;SDS011;1338;48.176;11.792;2022-08-19T11:26:05;16.77;;;15.07;;
2656;SDS011;1338;48.176;11.792;2022-08-19T11:28:34;16.50;;;14.90;;
2656;SDS011;1338;48.176;11.792;2022-08-19T11:31:02;15.10;;;13.70;;
2656;SDS011;1338;48.176;11.792;2022-08-19T11:33:31;13.53;;;12.33;;
2656;SDS011;1338;48.176;11.792;2022-08-19T11:36:00;12.10;;;11.00;;
2656;SDS011;1338;48.176;11.792;2022-08-19T11:38:28;12.43;;;11.37;;
2656;SDS011;1338;48.176;11.792;2022-08-19T11:40:57;12.43;;;11.33;;
2656;SDS011;1338;48.176;11.792;2022-08-19T11:43:29;11.57;;;10.67;;
2656;SDS011;1338;48.176;11.792;2022-08-19T11:46:03;13.87;;;12.67;;
2656;SDS011;1338;48.176;11.792;2022-08-19T11:48:35;13.17;;;11.97;;
2656;SDS011;1338;48.176;11.792;2022-08-19T11:51:05;13.97;;;12.73;;
2656;SDS011;1338;48.176;11.792;2022-08-19T11:53:36;13.93;;;12.70;;
2656;SDS011;1338;48.176;11.792;2022-08-19T11:56:05;13.07;;;11.83;;
2656;SDS011;1338;48.176;11.792;2022-08-19T11:58:35;12.73;;;11.60;;
2656;SDS011;1338;48.176;11.792;2022-08-19T12:01:05;13.53;;;12.23;;
2656;SDS011;1338;48.176;11.792;2022-08-19T12:03:33;14.40;;;13.00;;
2656;SDS011;1338;48.176;11.792;2022-08-19T12:06:04;15.30;;;14.07;;
2656;SDS011;1338;48.176;11.792;2022-08-19T12:08:33;13.90;;;12.60;;
2656;SDS011;1338;48.176;11.792;2022-08-19T12:11:01;14.87;;;13.43;;
2656;SDS011;1338;48.176;11.792;2022-08-19T12:13:30;17.53;;;15.73;;
2656;SDS011;1338;48.176;11.792;2022-08-19T12:15:58;14.43;;;13.17;;
2656;SDS011;1338;48.176;11.792;2022-08-19T12:18:26;13.47;;;12.30;;
2656;SDS011;1338;48.176;11.792;2022-08-19T12:20:54;12.50;;;11.40;;
2656;SDS011;1338;48.176;11.792;2022-08-19T12:23:24;11.40;;;10.40;;
2656;SDS011;1338;48.176;11.792;2022-08-19T12:25:52;9.70;;;8.90;;
2656;SDS011;1338;48.176;11.792;2022-08-19T12:28:23;8.33;;;7.70;;
2656;SDS011;1338;48.176;11.792;2022-08-19T12:30:52;6.83;;;6.33;;
2656;SDS011;1338;48.176;11.792;2022-08-19T12:33:20;6.40;;;5.90;;
2656;SDS011;1338;48.176;11.792;2022-08-19T12:35:51;6.10;;;5.60;;
2656;SDS011;1338;48.176;11.792;2022-08-19T12:38:19;5.50;;;5.10;;
2656;SDS011;1338;48.176;11.792;2022-08-19T12:40:51;5.60;;;5.20;;
2656;SDS011;1338;48.176;11.792;2022-08-19T12:43:25;5.80;;;5.40;;
2656;SDS011;1338;48.176;11.792;2022-08-19T12:45:55;4.70;;;4.37;;
2656;SDS011;1338;48.176;11.792;2022-08-19T12:48:23;4.90;;;4.60;;
2656;SDS011;1338;48.176;11.792;2022-08-19T12:51:00;4.83;;;4.40;;
2656;SDS011;1338;48.176;11.792;2022-08-19T12:53:32;4.97;;;4.57;;
2656;SDS011;1338;48.176;11.792;2022-08-19T12:56:06;4.63;;;4.30;;
2656;SDS011;1338;48.176;11.792;2022-08-19T12:58:38;4.70;;;4.40;;
2656;SDS011;1338;48.176;11.792;2022-08-19T13:01:16;3.90;;;3.70;;
2656;SDS011;1338;48.176;11.792;2022-08-19T13:03:48;4.20;;;3.90;;
2656;SDS011;1338;48.176;11.792;2022-08-19T13:06:18;3.90;;;3.60;;
2656;SDS011;1338;48.176;11.792;2022-08-19T13:08:46;4.07;;;3.77;;
2656;SDS011;1338;48.176;11.792;2022-08-19T13:11:17;4.13;;;3.83;;
2656;SDS011;1338;48.176;11.792;2022-08-19T13:13:47;4.40;;;3.97;;
2656;SDS011;1338;48.176;11.792;2022-08-19T13:16:17;4.10;;;3.73;;
2656;SDS011;1338;48.176;11.792;2022-08-19T13:18:48;3.40;;;3.10;;
2656;SDS011;1338;48.176;11.792;2022-08-19T13:21:18;3.50;;;3.20;;
2656;SDS011;1338;48.176;11.792;2022-08-19T13:23:49;4.07;;;3.70;;
2656;SDS011;1338;48.176;11.792;2022-08-19T13:26:20;3.37;;;3.17;;
2656;SDS011;1338;48.176;11.792;2022-08-19T13:28:48;3.20;;;3.00;;
2656;SDS011;1338;48.176;11.792;2022-08-19T13:31:39;3.20;;;3.00;;
2656;SDS011;1338;48.176;11.792;2022-08-19T13:34:26;3.03;;;2.83;;
2656;SDS011;1338;48.176;11.792;2022-08-19T13:36:56;2.83;;;2.70;;
2656;SDS011;1338;48.176;11.792;2022-08-19T13:39:25;2.50;;;2.40;;
2656;SDS011;1338;48.176;11.792;2022-08-19T13:41:55;2.90;;;2.60;;
2656;SDS011;1338;48.176;11.792;2022-08-19T13:44:23;2.77;;;2.57;;
2656;SDS011;1338;48.176;11.792;2022-08-19T13:46:52;2.60;;;2.40;;
2656;SDS011;1338;48.176;11.792;2022-08-19T13:49:20;2.80;;;2.60;;
2656;SDS011;1338;48.176;11.792;2022-08-19T13:51:49;2.80;;;2.60;;
2656;SDS011;1338;48.176;11.792;2022-08-19T13:54:17;3.03;;;2.83;;
2656;SDS011;1338;48.176;11.792;2022-08-19T13:56:45;3.40;;;3.20;;
2656;SDS011;1338;48.176;11.792;2022-08-19T13:59:15;3.20;;;2.90;;
2656;SDS011;1338;48.176;11.792;2022-08-19T14:01:44;3.23;;;3.03;;
2656;SDS011;1338;48.176;11.792;2022-08-19T14:04:12;3.10;;;2.90;;
2656;SDS011;1338;48.176;11.792;2022-08-19T14:06:40;3.43;;;3.23;;
2656;SDS011;1338;48.176;11.792;2022-08-19T14:09:08;3.30;;;3.10;;
2656;SDS011;1338;48.176;11.792;2022-08-19T14:11:36;3.63;;;3.33;;
2656;SDS011;1338;48.176;11.792;2022-08-19T14:14:04;3.60;;;3.30;;
2656;SDS011;1338;48.176;11.792;2022-08-19T14:16:34;4.37;;;4.07;;
2656;SDS011;1338;48.176;11.792;2022-08-19T14:19:02;4.63;;;4.33;;
2656;SDS011;1338;48.176;11.792;2022-08-19T14:21:30;4.60;;;4.30;;
2656;SDS011;1338;48.176;11.792;2022-08-19T14:24:05;4.20;;;3.90;;
2656;SDS011;1338;48.176;11.792;2022-08-19T14:26:33;4.57;;;4.27;;
2656;SDS011;1338;48.176;11.792;2022-08-19T14:29:01;4.73;;;4.43;;
2656;SDS011;1338;48.176;11.792;2022-08-19T14:31:30;4.93;;;4.53;;
2656;SDS011;1338;48.176;11.792;2022-08-19T14:33:59;4.37;;;4.00;;
2656;SDS011;1338;48.176;11.792;2022-08-19T14:36:27;5.00;;;4.60;;
2656;SDS011;1338;48.176;11.792;2022-08-19T14:38:56;5.00;;;4.70;;
2656;SDS011;1338;48.176;11.792;2022-08-19T14:41:26;5.30;;;4.90;;
2656;SDS011;1338;48.176;11.792;2022-08-19T14:43:56;4.93;;;4.60;;
2656;SDS011;1338;48.176;11.792;2022-08-19T14:46:25;5.20;;;4.80;;
2656;SDS011;1338;48.176;11.792;2022-08-19T14:48:55;5.80;;;5.30;;
2656;SDS011;1338;48.176;11.792;2022-08-19T14:51:26;4.37;;;4.07;;
2656;SDS011;1338;48.176;11.792;2022-08-19T14:53:55;4.90;;;4.53;;
2656;SDS011;1338;48.176;11.792;2022-08-19T14:56:24;3.97;;;3.67;;
2656;SDS011;1338;48.176;11.792;2022-08-19T14:58:53;4.20;;;3.90;;
2656;SDS011;1338;48.176;11.792;2022-08-19T15:01:25;4.17;;;3.87;;
2656;SDS011;1338;48.176;11.792;2022-08-19T15:03:54;5.30;;;4.90;;
2656;SDS011;1338;48.176;11.792;2022-08-19T15:06:22;6.00;;;5.60;;
2656;SDS011;1338;48.176;11.792;2022-08-19T15:08:53;6.13;;;5.63;;